Time;durP1;ratioP1;P1;durP2;ratioP2;P2;SDS_P1;SDS_P2;PMS_P1;PMS_P2;Temp;Humidity;BMP_temperature;BMP_pressure;BME280_temperature;BME280_humidity;BME280_pressure;Samples;Min_cycle;Max_cycle;Signal;HPM_P1;HPM_P2
2021/09/24 00:00:12;;;;;;;8.73;5.15;;;;;;;13.73;100.00;100741.66;4976872;28;20046;-70
2021/09/24 00:02:56;;;;;;;8.60;5.25;;;;;;;13.58;100.00;100740.53;4976887;28;20046;-70
2021/09/24 00:05:40;;;;;;;6.93;5.25;;;;;;;13.63;100.00;100736.38;4977427;28;20101;-70
2021/09/24 00:08:25;;;;;;;7.55;5.68;;;;;;;13.64;100.00;100742.56;4977407;28;20049;-69
2021/09/24 00:11:15;;;;;;;7.15;5.40;;;;;;;13.74;100.00;100732.63;4976741;28;20054;-70
2021/09/24 00:13:59;;;;;;;7.35;6.18;;;;;;;13.85;100.00;100729.72;4976507;28;20163;-70
2021/09/24 00:16:43;;;;;;;9.93;5.50;;;;;;;13.87;100.00;100738.47;4977810;28;20050;-69
2021/09/24 00:19:26;;;;;;;9.25;6.00;;;;;;;13.81;100.00;100739.06;4977561;28;20057;-70
2021/09/24 00:22:10;;;;;;;8.63;5.95;;;;;;;13.94;100.00;100734.16;4976303;28;20113;-70
2021/09/24 00:24:54;;;;;;;7.35;5.97;;;;;;;13.94;100.00;100729.66;4976286;28;20058;-70
2021/09/24 00:27:39;;;;;;;10.07;5.93;;;;;;;14.01;100.00;100735.22;4976376;28;20101;-70
2021/09/24 00:30:26;;;;;;;9.95;5.90;;;;;;;14.05;100.00;100740.13;4977136;28;20045;-69
2021/09/24 00:33:10;;;;;;;9.35;5.82;;;;;;;14.09;100.00;100727.25;4976364;28;20121;-69
2021/09/24 00:35:55;;;;;;;6.85;5.65;;;;;;;14.10;100.00;100723.56;4977352;28;20054;-70
2021/09/24 00:38:39;;;;;;;9.18;6.38;;;;;;;14.16;100.00;100723.78;4962657;28;20058;-70
2021/09/24 00:41:23;;;;;;;9.57;6.10;;;;;;;14.20;100.00;100730.53;4977185;28;20042;-68
2021/09/24 00:44:08;;;;;;;7.13;5.60;;;;;;;14.23;100.00;100724.03;4962489;28;20518;-69
2021/09/24 00:46:52;;;;;;;11.85;5.70;;;;;;;14.25;100.00;100711.31;4976191;28;20137;-70
2021/09/24 00:49:36;;;;;;;7.35;5.60;;;;;;;14.29;100.00;100726.09;4975381;28;20101;-70
2021/09/24 00:52:20;;;;;;;8.32;6.13;;;;;;;14.30;100.00;100717.06;4976030;28;20192;-70
2021/09/24 00:55:05;;;;;;;10.90;6.55;;;;;;;14.26;100.00;100716.53;4977002;28;20062;-70
2021/09/24 00:57:49;;;;;;;13.02;5.65;;;;;;;14.25;100.00;100728.25;4975608;28;20085;-70
2021/09/24 01:00:33;;;;;;;10.15;6.18;;;;;;;14.15;100.00;100723.94;4976514;28;20101;-70
2021/09/24 01:03:17;;;;;;;11.20;6.32;;;;;;;14.17;100.00;100722.00;4975588;28;20052;-70
2021/09/24 01:06:01;;;;;;;8.43;5.93;;;;;;;14.08;100.00;100725.56;4961827;28;20101;-70
2021/09/24 01:08:46;;;;;;;10.32;6.28;;;;;;;14.00;100.00;100722.81;4975679;28;20056;-70
2021/09/24 01:11:30;;;;;;;11.90;5.78;;;;;;;13.92;100.00;100722.75;4975626;28;20503;-70
2021/09/24 01:14:14;;;;;;;10.95;5.35;;;;;;;13.84;100.00;100720.84;4975643;28;20403;-70
2021/09/24 01:16:59;;;;;;;8.73;5.43;;;;;;;13.74;100.00;100716.53;4975482;28;20057;-71
2021/09/24 01:19:43;;;;;;;7.28;6.22;;;;;;;13.67;100.00;100723.53;4961796;28;20125;-70
2021/09/24 01:22:27;;;;;;;11.90;5.90;;;;;;;13.63;100.00;100719.47;4976483;28;20100;-68
2021/09/24 01:25:12;;;;;;;7.60;6.07;;;;;;;13.64;100.00;100711.28;4976207;28;20089;-70
2021/09/24 01:27:56;;;;;;;11.15;6.78;;;;;;;13.63;100.00;100706.06;4961405;28;20050;-68
2021/09/24 01:30:40;;;;;;;9.70;6.22;;;;;;;13.65;100.00;100706.78;4961365;28;20101;-70
2021/09/24 01:33:24;;;;;;;7.68;6.38;;;;;;;13.62;100.00;100704.38;4976292;28;20105;-70
2021/09/24 01:36:08;;;;;;;9.32;6.60;;;;;;;13.64;100.00;100705.06;4975244;28;20054;-70
2021/09/24 01:38:52;;;;;;;10.27;6.50;;;;;;;13.63;100.00;100695.34;4974877;28;20582;-70
2021/09/24 01:41:44;;;;;;;10.38;6.28;;;;;;;13.63;100.00;100692.66;4975140;28;20106;-70
2021/09/24 01:44:28;;;;;;;10.50;6.40;;;;;;;13.65;100.00;100696.06;4961105;28;20089;-70
2021/09/24 01:47:15;;;;;;;9.50;6.82;;;;;;;13.64;100.00;100695.19;4975038;28;20076;-70
2021/09/24 01:49:59;;;;;;;10.55;7.18;;;;;;;13.63;100.00;100692.66;4974686;28;20065;-70
2021/09/24 01:52:46;;;;;;;12.27;6.35;;;;;;;13.61;100.00;100689.31;4961101;28;20534;-70
2021/09/24 01:55:30;;;;;;;10.20;6.68;;;;;;;13.58;100.00;100694.97;4974569;28;20567;-70
2021/09/24 01:58:14;;;;;;;11.55;6.68;;;;;;;13.55;100.00;100690.75;4974756;28;20082;-71
2021/09/24 02:00:57;;;;;;;14.63;7.05;;;;;;;13.58;100.00;100689.63;4975296;28;20053;-70
2021/09/24 02:03:41;;;;;;;8.93;6.88;;;;;;;13.53;100.00;100689.22;4960842;28;20049;-70
2021/09/24 02:06:28;;;;;;;8.18;6.70;;;;;;;13.51;100.00;100683.19;4974603;28;20117;-70
2021/09/24 02:09:12;;;;;;;10.52;7.32;;;;;;;13.47;100.00;100681.81;4974546;28;20041;-70
2021/09/24 02:11:55;;;;;;;9.45;7.15;;;;;;;13.47;100.00;100687.16;4975254;28;20054;-70
2021/09/24 02:14:39;;;;;;;11.35;6.85;;;;;;;13.45;100.00;100689.16;4960847;28;20419;-70
2021/09/24 02:17:23;;;;;;;12.32;7.38;;;;;;;13.45;100.00;100689.16;4975414;28;20105;-71
2021/09/24 02:20:08;;;;;;;12.20;7.55;;;;;;;13.46;100.00;100697.03;4974333;28;20081;-70
2021/09/24 02:22:52;;;;;;;14.10;7.25;;;;;;;13.48;100.00;100694.22;4974983;28;20057;-70
2021/09/24 02:25:36;;;;;;;8.85;6.68;;;;;;;13.46;100.00;100683.63;4974354;28;20133;-68
2021/09/24 02:28:20;;;;;;;8.98;6.85;;;;;;;13.44;100.00;100688.31;4975197;28;20073;-70
2021/09/24 02:31:09;;;;;;;13.75;6.40;;;;;;;13.46;100.00;100685.50;4975299;28;20551;-70
2021/09/24 02:33:53;;;;;;;14.15;6.57;;;;;;;13.51;100.00;100683.19;4961055;28;20093;-69
2021/09/24 02:36:37;;;;;;;13.10;7.43;;;;;;;13.53;100.00;100686.53;4974013;28;20085;-71
2021/09/24 02:39:22;;;;;;;14.18;7.45;;;;;;;13.53;100.00;100681.19;4973977;28;20515;-70
2021/09/24 02:42:06;;;;;;;10.80;6.85;;;;;;;13.55;100.00;100689.94;4973974;28;20085;-70
2021/09/24 02:44:49;;;;;;;11.02;6.60;;;;;;;13.48;100.00;100684.31;4973999;28;20054;-70
2021/09/24 02:47:33;;;;;;;9.50;6.80;;;;;;;13.50;100.00;100682.34;4973989;28;20058;-70
2021/09/24 02:50:17;;;;;;;10.95;7.55;;;;;;;13.50;100.00;100681.50;4973908;28;20053;-70
2021/09/24 02:53:02;;;;;;;10.70;7.40;;;;;;;13.49;100.00;100679.81;4973860;28;20104;-70
2021/09/24 02:55:45;;;;;;;9.30;6.85;;;;;;;13.44;100.00;100688.31;4974737;28;20562;-70
2021/09/24 02:58:29;;;;;;;8.45;6.07;;;;;;;13.33;100.00;100690.34;4974424;28;20065;-68
2021/09/24 03:01:13;;;;;;;10.60;7.13;;;;;;;13.22;100.00;100686.06;4973726;28;20515;-70
2021/09/24 03:03:57;;;;;;;8.27;6.13;;;;;;;13.13;100.00;100688.78;4960092;28;20053;-70
2021/09/24 03:06:41;;;;;;;10.10;7.05;;;;;;;13.09;100.00;100693.63;4973352;28;20074;-70
2021/09/24 03:09:25;;;;;;;10.63;7.60;;;;;;;13.13;100.00;100694.16;4974695;28;20106;-70
2021/09/24 03:12:09;;;;;;;11.40;7.40;;;;;;;13.11;100.00;100693.47;4973141;28;20104;-70
2021/09/24 03:14:52;;;;;;;7.90;6.60;;;;;;;13.01;100.00;100682.81;4973358;28;20050;-70
2021/09/24 03:17:37;;;;;;;11.23;8.38;;;;;;;12.97;100.00;100686.78;4974492;28;20046;-71
2021/09/24 03:20:21;;;;;;;11.23;7.70;;;;;;;12.90;100.00;100691.03;4973490;28;20049;-70
2021/09/24 03:23:05;;;;;;;10.68;8.23;;;;;;;12.84;100.00;100688.09;4959794;28;20100;-70
2021/09/24 03:25:49;;;;;;;8.65;6.95;;;;;;;12.75;100.00;100689.00;4973319;28;20510;-70
2021/09/24 03:28:33;;;;;;;11.32;6.35;;;;;;;12.63;100.00;100682.16;4973136;28;20053;-70
2021/09/24 03:31:17;;;;;;;10.52;7.63;;;;;;;12.59;100.00;100682.59;4973169;28;20089;-71
2021/09/24 03:34:01;;;;;;;12.00;7.35;;;;;;;12.55;100.00;100687.38;4973489;28;20114;-70
2021/09/24 03:36:47;;;;;;;9.18;7.20;;;;;;;12.45;100.00;100686.56;4974129;28;20054;-69
2021/09/24 03:39:31;;;;;;;9.85;6.88;;;;;;;12.42;100.00;100686.88;4973375;28;20181;-70
2021/09/24 03:42:15;;;;;;;6.60;5.68;;;;;;;12.34;100.00;100677.88;4973216;28;20130;-70
2021/09/24 03:44:59;;;;;;;11.68;6.30;;;;;;;12.25;100.00;100682.28;4973356;28;20174;-70
2021/09/24 03:47:43;;;;;;;9.63;6.50;;;;;;;12.17;100.00;100687.50;4973144;28;20074;-70
2021/09/24 03:50:27;;;;;;;9.50;6.50;;;;;;;12.11;100.00;100688.09;4973167;28;20558;-70
2021/09/24 03:53:11;;;;;;;10.05;6.90;;;;;;;12.08;100.00;100685.69;4973295;28;20110;-70
2021/09/24 03:55:54;;;;;;;13.57;8.02;;;;;;;12.08;100.00;100685.69;4959760;28;20049;-70
2021/09/24 03:58:38;;;;;;;12.90;7.43;;;;;;;12.16;100.00;100685.81;4973178;28;20093;-70
2021/09/24 04:01:22;;;;;;;14.02;7.78;;;;;;;12.16;100.00;100684.94;4959628;28;20098;-70
2021/09/24 04:04:06;;;;;;;11.32;7.90;;;;;;;12.24;100.00;100683.25;4973177;28;20049;-70
2021/09/24 04:06:50;;;;;;;11.90;7.75;;;;;;;12.23;100.00;100686.94;4972786;28;20479;-70
2021/09/24 04:09:35;;;;;;;9.15;7.43;;;;;;;12.29;100.00;100693.53;4973404;28;20041;-70
2021/09/24 04:12:19;;;;;;;11.63;7.93;;;;;;;12.31;100.00;100689.69;4973120;28;20518;-70
2021/09/24 04:15:05;;;;;;;12.55;8.00;;;;;;;12.47;100.00;100695.28;4972822;28;20133;-69
2021/09/24 04:17:51;;;;;;;17.60;8.13;;;;;;;12.54;100.00;100685.72;4973197;28;20046;-70
2021/09/24 04:20:35;;;;;;;11.57;8.32;;;;;;;12.56;100.00;100691.75;4972777;28;20054;-70
2021/09/24 04:23:19;;;;;;;13.93;9.32;;;;;;;12.57;100.00;100689.91;4973748;28;20141;-70
2021/09/24 04:26:03;;;;;;;10.73;8.18;;;;;;;12.53;100.00;100689.38;4975887;28;20055;-71
2021/09/24 04:28:48;;;;;;;11.75;8.10;;;;;;;12.56;100.00;100688.22;4976170;28;20172;-70
2021/09/24 04:31:32;;;;;;;11.35;8.25;;;;;;;12.55;100.00;100682.03;4977393;28;20495;-70
2021/09/24 04:34:16;;;;;;;14.13;8.30;;;;;;;12.58;100.00;100689.75;4976134;28;20069;-70
2021/09/24 04:36:59;;;;;;;15.60;8.80;;;;;;;12.56;100.00;100686.41;4976248;28;20053;-70
2021/09/24 04:39:43;;;;;;;14.77;8.05;;;;;;;12.53;100.00;100683.16;4975948;28;20054;-69
2021/09/24 04:42:28;;;;;;;11.98;8.40;;;;;;;12.52;100.00;100686.81;4976174;28;20546;-70
2021/09/24 04:45:15;;;;;;;11.90;8.48;;;;;;;12.46;100.00;100690.94;4976163;28;20049;-70
2021/09/24 04:47:59;;;;;;;14.32;8.38;;;;;;;12.45;100.00;100691.94;4975721;28;20599;-70
2021/09/24 04:50:43;;;;;;;11.25;8.85;;;;;;;12.38;100.00;100685.47;4962362;28;20507;-68
2021/09/24 04:53:27;;;;;;;15.13;8.18;;;;;;;12.33;100.00;100682.41;4976014;28;20117;-70
2021/09/24 04:56:11;;;;;;;14.63;8.80;;;;;;;12.30;100.00;100690.69;4975901;28;20050;-70
2021/09/24 04:58:55;;;;;;;14.07;8.98;;;;;;;12.28;100.00;100694.53;4962489;28;20049;-70
2021/09/24 05:01:39;;;;;;;13.20;8.52;;;;;;;12.26;100.00;100694.66;4975508;28;20094;-70
2021/09/24 05:04:23;;;;;;;14.00;8.90;;;;;;;12.22;100.00;100695.94;4975848;28;20077;-70
2021/09/24 05:07:07;;;;;;;11.40;8.30;;;;;;;12.20;100.00;100697.88;4961858;28;20420;-70
2021/09/24 05:09:51;;;;;;;12.57;8.77;;;;;;;12.17;100.00;100698.19;5014880;23;20541;-67
2021/09/24 05:12:35;;;;;;;12.13;8.40;;;;;;;12.18;100.00;100705.22;5008922;28;20049;-67
2021/09/24 05:15:19;;;;;;;12.25;8.18;;;;;;;12.19;100.00;100706.91;4996066;28;20089;-66
2021/09/24 05:18:03;;;;;;;12.38;8.82;;;;;;;12.19;100.00;100706.91;4995909;28;20057;-67
2021/09/24 05:20:47;;;;;;;13.68;9.07;;;;;;;12.15;100.00;100701.97;4994918;28;20049;-67
2021/09/24 05:23:31;;;;;;;11.50;8.80;;;;;;;12.15;100.00;100700.16;4995139;28;20096;-67
2021/09/24 05:26:14;;;;;;;12.50;8.77;;;;;;;12.15;100.00;100704.66;4995533;28;20057;-67
2021/09/24 05:28:58;;;;;;;11.50;8.82;;;;;;;12.15;100.00;100705.50;4994826;28;20411;-66
2021/09/24 05:31:42;;;;;;;15.45;9.45;;;;;;;12.17;100.00;100700.03;4995766;28;20053;-67
2021/09/24 05:34:26;;;;;;;13.77;8.52;;;;;;;12.18;100.00;100697.19;4994461;28;20101;-68
2021/09/24 05:37:10;;;;;;;13.82;10.05;;;;;;;12.21;100.00;100694.22;4995012;28;20133;-66
2021/09/24 05:39:54;;;;;;;16.33;9.57;;;;;;;12.21;100.00;100698.75;4994398;28;20073;-67
2021/09/24 05:42:38;;;;;;;14.20;9.85;;;;;;;12.25;100.00;100689.44;4994287;28;20131;-67
2021/09/24 05:45:22;;;;;;;14.27;9.25;;;;;;;12.24;100.00;100685.09;4994852;28;20506;-67
2021/09/24 05:48:06;;;;;;;13.15;10.02;;;;;;;12.30;100.00;100693.34;4994636;28;20049;-67
2021/09/24 05:50:50;;;;;;;18.35;10.35;;;;;;;12.35;100.00;100693.78;4980667;28;20097;-67
2021/09/24 05:53:34;;;;;;;15.18;9.90;;;;;;;12.41;100.00;100693.19;4994357;28;20533;-68
2021/09/24 05:56:18;;;;;;;14.23;9.52;;;;;;;12.46;100.00;100698.97;4994376;28;20135;-67
2021/09/24 05:59:02;;;;;;;15.35;10.10;;;;;;;12.58;100.00;100699.63;4994014;28;20108;-67
2021/09/24 06:01:48;;;;;;;15.07;10.50;;;;;;;12.66;100.00;100697.03;4993931;28;20049;-67
2021/09/24 06:04:32;;;;;;;15.52;10.45;;;;;;;12.72;100.00;100693.78;4980734;28;20076;-67
2021/09/24 06:07:16;;;;;;;17.17;10.52;;;;;;;12.83;100.00;100686.41;4993850;28;20053;-67
2021/09/24 06:10:00;;;;;;;17.10;10.73;;;;;;;12.88;100.00;100689.47;4993853;28;20462;-67
2021/09/24 06:12:48;;;;;;;13.57;10.18;;;;;;;12.94;100.00;100692.44;4993746;28;20508;-67
2021/09/24 06:15:33;;;;;;;13.50;9.93;;;;;;;13.02;100.00;100691.69;4994902;28;20049;-67
2021/09/24 06:18:17;;;;;;;16.88;11.18;;;;;;;13.12;100.00;100697.81;4993738;28;20103;-67
2021/09/24 06:21:02;;;;;;;15.85;10.40;;;;;;;13.21;100.00;100694.25;4980099;28;20054;-67
2021/09/24 06:23:46;;;;;;;17.27;10.98;;;;;;;13.31;100.00;100698.56;4993785;28;20088;-67
2021/09/24 06:26:30;;;;;;;19.25;10.80;;;;;;;13.43;100.00;100701.84;4993725;28;20100;-67
2021/09/24 06:29:14;;;;;;;17.10;11.30;;;;;;;13.51;100.00;100709.97;4994349;28;20081;-67
2021/09/24 06:31:58;;;;;;;14.57;10.57;;;;;;;13.62;100.00;100713.28;4994675;28;20053;-67
2021/09/24 06:34:43;;;;;;;15.35;10.75;;;;;;;13.67;100.00;100705.59;4979605;28;20097;-67
2021/09/24 06:37:27;;;;;;;15.10;11.65;;;;;;;13.80;100.00;100713.25;4993298;28;20176;-67
2021/09/24 06:40:12;;;;;;;17.42;11.15;;;;;;;13.81;100.00;100707.75;4993275;28;20049;-67
2021/09/24 06:42:56;;;;;;;14.07;11.00;;;;;;;13.88;100.00;100713.34;4993353;28;20089;-68
2021/09/24 06:45:40;;;;;;;16.60;10.60;;;;;;;13.94;100.00;100718.06;4993446;28;20061;-68
2021/09/24 06:48:24;;;;;;;14.25;10.43;;;;;;;14.02;100.00;100732.41;4992560;28;20052;-66
2021/09/24 06:51:08;;;;;;;24.98;10.45;;;;;;;14.06;100.00;100719.53;4994032;28;20510;-68
2021/09/24 06:53:52;;;;;;;19.23;11.15;;;;;;;14.11;100.00;100710.03;4994306;28;20056;-68
2021/09/24 06:56:36;;;;;;;15.77;11.52;;;;;;;14.19;100.00;100712.78;4994001;28;20044;-67
2021/09/24 06:59:20;;;;;;;14.50;10.73;;;;;;;14.27;100.00;100714.69;4979283;28;20057;-68
2021/09/24 07:02:04;;;;;;;16.45;11.20;;;;;;;14.31;100.00;100716.06;4979405;28;20057;-67
2021/09/24 07:04:49;;;;;;;15.25;10.63;;;;;;;14.41;100.00;100719.47;4993198;28;20056;-67
2021/09/24 07:07:32;;;;;;;;;;;;;;;14.45;100.00;100713.63;4994247;28;20116;-68
2021/09/24 07:10:18;;;;;;;15.63;11.27;;;;;;;14.59;100.00;100722.94;4979656;28;20369;-68
2021/09/24 07:13:02;;;;;;;14.55;10.55;;;;;;;14.62;100.00;100718.13;4994321;28;20057;-67
2021/09/24 07:15:48;;;;;;;15.63;10.23;;;;;;;14.75;100.00;100715.81;4993851;28;20085;-67
2021/09/24 07:18:32;;;;;;;13.88;10.05;;;;;;;14.84;100.00;100706.81;4992723;28;20510;-66
2021/09/24 07:21:16;;;;;;;15.98;10.43;;;;;;;14.91;100.00;100709.69;4993731;28;20100;-67
2021/09/24 07:24:01;;;;;;;16.63;10.10;;;;;;;15.00;100.00;100712.25;4979327;28;20545;-66
2021/09/24 07:26:45;;;;;;;14.18;9.40;;;;;;;15.07;100.00;100709.75;4992743;28;20053;-66
2021/09/24 07:29:29;;;;;;;15.55;9.57;;;;;;;15.15;100.00;100717.84;4992830;28;20045;-66
2021/09/24 07:32:13;;;;;;;12.38;9.27;;;;;;;15.24;100.00;100722.25;4992877;28;20108;-67
2021/09/24 07:34:58;;;;;;;13.68;9.43;;;;;;;15.35;100.00;100720.13;4979404;28;20100;-66
2021/09/24 07:37:41;;;;;;;14.65;9.85;;;;;;;15.45;100.00;100717.28;4994749;28;20073;-68
2021/09/24 07:40:27;;;;;;;11.68;8.48;;;;;;;15.48;100.00;100728.56;4992743;28;20104;-68
2021/09/24 07:43:12;;;;;;;13.32;9.10;;;;;;;15.55;100.00;100731.41;4992512;28;20101;-68
2021/09/24 07:45:56;;;;;;;16.30;10.05;;;;;;;15.63;100.00;100730.44;4978922;28;20049;-67
2021/09/24 07:48:42;;;;;;;12.82;9.80;;;;;;;15.73;100.00;100727.56;4993547;28;20089;-67
2021/09/24 07:51:26;;;;;;;14.88;8.85;;;;;;;15.77;100.00;100724.41;4979062;28;20064;-67
2021/09/24 07:54:10;;;;;;;12.18;9.15;;;;;;;15.80;99.45;100731.28;4992832;28;20166;-66
2021/09/24 07:56:54;;;;;;;10.35;8.93;;;;;;;15.89;99.35;100731.16;4993680;28;20048;-67
2021/09/24 07:59:42;;;;;;;12.82;8.98;;;;;;;15.90;98.41;100727.47;4994957;28;20134;-68
2021/09/24 08:02:26;;;;;;;9.45;8.00;;;;;;;16.04;98.06;100723.22;4996217;28;20060;-67
2021/09/24 08:05:10;;;;;;;13.30;8.60;;;;;;;16.07;96.61;100731.81;4996408;28;20193;-68
2021/09/24 08:07:54;;;;;;;9.77;8.27;;;;;;;16.15;96.23;100731.00;4982363;28;20065;-68
2021/09/24 08:10:38;;;;;;;11.43;7.90;;;;;;;16.21;95.66;100747.28;4996214;28;20048;-67
2021/09/24 08:13:24;;;;;;;10.82;8.27;;;;;;;16.20;93.91;100744.75;4995907;28;20415;-67
2021/09/24 08:16:09;;;;;;;11.48;7.82;;;;;;;16.31;93.55;100745.28;4996180;28;20100;-67
2021/09/24 08:18:52;;;;;;;11.18;6.75;;;;;;;16.44;93.26;100734.84;4996162;28;20045;-67
2021/09/24 08:21:37;;;;;;;8.57;7.47;;;;;;;16.65;92.12;100735.16;4995815;28;20518;-67
2021/09/24 08:24:20;;;;;;;10.70;7.45;;;;;;;16.77;90.39;100744.53;4996038;28;20053;-67
2021/09/24 08:27:05;;;;;;;10.57;7.57;;;;;;;16.90;90.45;100738.63;4982162;28;20058;-67
2021/09/24 08:29:48;;;;;;;10.48;7.85;;;;;;;17.05;88.19;100748.50;4996836;28;20513;-67
2021/09/24 08:32:36;;;;;;;9.10;7.78;;;;;;;17.25;88.17;100744.38;4982112;28;20148;-67
2021/09/24 08:35:21;;;;;;;8.02;7.07;;;;;;;17.45;85.08;100745.66;4996779;28;20061;-67
2021/09/24 08:38:06;;;;;;;11.45;6.82;;;;;;;17.67;85.59;100744.00;4995607;28;20100;-68
2021/09/24 08:40:50;;;;;;;11.77;7.75;;;;;;;17.87;83.74;100743.38;4996707;28;20057;-67
2021/09/24 08:43:33;;;;;;;10.38;7.13;;;;;;;17.94;82.09;100747.03;4995661;28;20045;-67
2021/09/24 08:46:18;;;;;;;7.63;6.40;;;;;;;18.02;82.64;100749.66;4995582;28;20053;-67
2021/09/24 08:49:04;;;;;;;9.23;6.68;;;;;;;17.93;81.57;100752.59;4995486;28;20049;-66
2021/09/24 08:51:48;;;;;;;11.38;7.00;;;;;;;18.12;81.25;100742.16;4982004;28;20622;-67
2021/09/24 08:54:32;;;;;;;13.27;6.88;;;;;;;18.23;80.54;100740.91;4981411;28;20189;-67
2021/09/24 08:57:16;;;;;;;8.07;6.97;;;;;;;18.28;78.42;100752.81;4981665;28;20045;-67
2021/09/24 09:00:00;;;;;;;8.63;6.45;;;;;;;18.42;78.40;100745.81;4994961;28;20101;-67
2021/09/24 09:02:56;;;;;;;9.57;6.30;;;;;;;18.64;76.84;100743.91;4994916;28;20049;-69
2021/09/24 09:05:41;;;;;;;9.75;6.30;;;;;;;18.81;75.71;100747.28;4996287;28;20048;-68
2021/09/24 09:08:28;;;;;;;8.02;6.28;;;;;;;19.03;74.37;100740.94;4995934;28;20057;-67
2021/09/24 09:11:16;;;;;;;9.98;6.40;;;;;;;19.20;72.63;100732.47;4994111;28;20049;-68
2021/09/24 09:14:01;;;;;;;10.25;6.15;;;;;;;19.33;71.06;100731.81;4996311;28;20076;-68
2021/09/24 09:16:45;;;;;;;11.13;6.45;;;;;;;19.48;70.93;100724.50;4996016;28;20068;-67
2021/09/24 09:19:36;;;;;;;7.68;5.45;;;;;;;20.07;69.95;100723.28;4994650;28;20096;-68
2021/09/24 09:22:21;;;;;;;7.53;6.03;;;;;;;20.61;64.83;100725.19;4981223;28;20061;-68
2021/09/24 09:25:12;;;;;;;8.02;5.93;;;;;;;21.48;61.03;100717.16;4981439;28;20455;-68
2021/09/24 09:27:58;;;;;;;6.30;5.18;;;;;;;22.45;57.24;100724.69;4994480;28;20121;-68
2021/09/24 09:30:44;;;;;;;6.75;5.32;;;;;;;24.51;51.48;100714.97;4995530;28;20045;-68
2021/09/24 09:33:28;;;;;;;8.65;5.68;;;;;;;25.72;48.19;100717.63;4995796;28;20525;-68
2021/09/24 09:36:20;;;;;;;12.45;5.90;;;;;;;27.63;44.13;100706.44;4994748;28;20048;-68
2021/09/24 09:39:09;;;;;;;8.43;5.80;;;;;;;27.66;42.47;100716.06;4995428;28;20416;-68
2021/09/24 09:41:56;;;;;;;8.25;6.03;;;;;;;28.34;41.67;100717.66;4994603;28;20141;-68
2021/09/24 09:44:39;;;;;;;11.07;6.07;;;;;;;28.45;40.59;100721.41;4994476;28;20566;-68
2021/09/24 09:47:33;;;;;;;;;;;;;;;27.92;40.14;100713.59;4995883;28;20049;-68
2021/09/24 09:50:26;;;;;;;6.65;5.38;;;;;;;29.74;37.34;100705.97;4994467;28;19963;-68
2021/09/24 09:53:15;;;;;;;8.20;6.18;;;;;;;30.59;35.86;100701.28;4995385;28;20045;-68
2021/09/24 09:56:02;;;;;;;8.25;6.10;;;;;;;29.20;37.40;100715.19;4993989;28;20100;-68
2021/09/24 09:58:47;;;;;;;6.63;5.97;;;;;;;28.68;39.54;100710.25;4994114;28;20100;-68
2021/09/24 10:01:34;;;;;;;9.38;5.75;;;;;;;29.43;38.29;100719.56;4994006;28;20060;-68
2021/09/24 10:04:18;;;;;;;7.70;5.80;;;;;;;30.35;36.28;100703.56;4993867;28;20129;-68
2021/09/24 10:07:10;;;;;;;6.10;5.50;;;;;;;29.58;36.75;100698.63;4994092;28;20045;-68
2021/09/24 10:10:08;;;;;;;5.93;5.18;;;;;;;29.13;37.70;100702.72;4980203;28;20045;-68
2021/09/24 10:12:52;;;;;;;9.45;6.18;;;;;;;29.75;36.86;100704.06;4993937;28;20053;-68
2021/09/24 10:15:36;;;;;;;7.85;6.07;;;;;;;29.48;36.28;100703.16;4993968;28;20104;-69
2021/09/24 10:18:21;;;;;;;7.63;5.20;;;;;;;31.63;33.85;100686.44;4994042;28;20056;-68
2021/09/24 10:21:05;;;;;;;6.88;6.00;;;;;;;31.22;34.05;100699.25;4979900;28;20112;-68
2021/09/24 10:23:49;;;;;;;7.38;6.05;;;;;;;31.42;33.11;100698.50;4993781;28;20049;-68
2021/09/24 10:26:37;;;;;;;7.35;6.13;;;;;;;31.14;33.55;100690.69;4980288;28;20138;-68
2021/09/24 10:29:32;;;;;;;9.95;5.80;;;;;;;31.50;33.55;100695.25;4993469;28;20097;-68
2021/09/24 10:32:18;;;;;;;7.97;6.43;;;;;;;32.71;31.68;100686.03;4980173;28;20100;-69
2021/09/24 10:35:07;;;;;;;8.52;6.60;;;;;;;31.11;32.70;100702.19;4993613;28;20514;-68
2021/09/24 10:38:08;;;;;;;6.45;5.65;;;;;;;32.54;31.83;100679.97;4993458;28;20053;-68
2021/09/24 10:40:54;;;;;;;6.72;5.82;;;;;;;33.66;30.26;100684.63;4993456;28;20126;-69
2021/09/24 10:43:49;;;;;;;6.20;5.60;;;;;;;33.51;30.36;100687.47;4994467;28;20049;-67
2021/09/24 10:46:38;;;;;;;13.43;5.93;;;;;;;33.78;29.36;100679.63;4979679;28;20507;-67
2021/09/24 10:49:26;;;;;;;7.53;5.60;;;;;;;33.54;29.93;100686.91;4993285;28;20116;-67
2021/09/24 10:52:11;;;;;;;9.70;5.50;;;;;;;32.86;30.06;100688.78;4994037;28;20196;-67
2021/09/24 10:54:59;;;;;;;8.18;5.10;;;;;;;33.99;28.97;100667.31;4993177;28;20137;-67
2021/09/24 10:57:50;;;;;;;6.70;5.90;;;;;;;-139.48;29.03;100669.75;4993059;28;20053;-67
2021/09/24 11:00:34;;;;;;;9.73;5.60;;;;;;;35.17;27.16;100657.31;4993118;28;20141;-66
2021/09/24 11:03:22;;;;;;;7.97;5.25;;;;;;;35.04;27.41;100658.03;4993004;28;20134;-67
2021/09/24 11:06:10;;;;;;;5.22;4.57;;;;;;;36.27;25.88;100653.00;4994420;28;20490;-67
2021/09/24 11:08:59;;;;;;;7.57;4.95;;;;;;;35.00;27.13;100654.19;4992749;28;20104;-67
2021/09/24 11:11:51;;;;;;;9.70;5.47;;;;;;;34.18;28.01;100659.94;5003033;23;20479;-67
2021/09/24 11:14:37;;;;;;;7.38;4.40;;;;;;;35.33;26.44;100644.13;4973251;28;20050;-67
2021/09/24 11:17:40;;;;;;;7.95;4.32;;;;;;;36.58;24.54;100646.59;4959983;28;20058;-68
2021/09/24 11:20:30;;;;;;;7.00;4.40;;;;;;;36.60;24.99;100644.38;4973285;28;20097;-68
2021/09/24 11:23:35;;;;;;;7.07;4.40;;;;;;;37.24;23.71;100638.66;4974588;28;20049;-68
2021/09/24 11:26:25;;;;;;;5.50;4.10;;;;;;;37.50;23.35;100642.53;4973831;28;20065;-68
2021/09/24 11:29:11;;;;;;;5.57;4.55;;;;;;;36.49;24.92;100633.72;4973696;28;20085;-68
2021/09/24 11:32:04;;;;;;;5.55;4.43;;;;;;;35.14;25.81;100640.44;4973449;28;20459;-68
2021/09/24 11:34:48;;;;;;;5.72;4.70;;;;;;;33.54;27.71;100626.09;4976107;28;20053;-68
2021/09/24 11:37:33;;;;;;;6.35;4.18;;;;;;;35.33;25.52;100633.88;4977383;28;20057;-68
2021/09/24 11:40:20;;;;;;;7.53;4.95;;;;;;;34.06;27.70;100628.25;4978292;28;20205;-68
2021/09/24 11:43:04;;;;;;;5.13;4.60;;;;;;;35.82;25.68;100619.59;4977330;28;20129;-68
2021/09/24 11:45:47;;;;;;;5.13;4.35;;;;;;;35.58;25.50;100614.06;4977271;28;20101;-68
2021/09/24 11:48:33;;;;;;;5.40;4.15;;;;;;;33.89;26.92;100633.34;4977149;28;20097;-68
2021/09/24 11:51:23;;;;;;;5.20;4.07;;;;;;;32.42;29.88;100627.00;4977097;28;20523;-68
2021/09/24 11:54:07;;;;;;;5.25;3.90;;;;;;;34.92;27.36;100620.78;4977108;28;20054;-68
2021/09/24 11:56:52;;;;;;;4.55;4.15;;;;;;;33.24;28.26;100619.91;4977685;28;20054;-68
2021/09/24 11:59:36;;;;;;;6.55;4.28;;;;;;;34.06;28.08;100622.72;4977727;28;20078;-68
2021/09/24 12:02:21;;;;;;;5.80;4.43;;;;;;;36.35;25.18;100608.69;4977885;28;20073;-68
2021/09/24 12:05:06;;;;;;;9.07;4.65;;;;;;;35.34;26.64;100602.25;4977913;28;20054;-68
2021/09/24 12:07:50;;;;;;;5.93;5.13;;;;;;;33.75;28.19;100616.56;4976897;28;20177;-68
2021/09/24 12:10:35;;;;;;;5.05;4.05;;;;;;;33.71;28.18;100607.19;4976638;28;21824;-68
2021/09/24 12:13:19;;;;;;;4.68;4.28;;;;;;;34.87;27.40;100610.56;4977766;28;20045;-68
2021/09/24 12:16:04;;;;;;;4.90;4.35;;;;;;;34.17;27.71;100596.59;4976737;28;20142;-68
2021/09/24 12:19:09;;;;;;;6.18;4.53;;;;;;;35.20;26.28;100594.94;4976408;28;20054;-68
2021/09/24 12:21:59;;;;;;;5.15;4.65;;;;;;;36.44;25.77;100589.34;4977526;28;20053;-69
2021/09/24 12:24:46;;;;;;;6.20;4.80;;;;;;;34.26;26.71;100592.94;4976312;28;20074;-68
2021/09/24 12:27:32;;;;;;;5.93;4.53;;;;;;;32.91;29.50;100592.13;4977412;28;20101;-68
2021/09/24 12:30:18;;;;;;;5.45;4.80;;;;;;;31.20;30.92;100585.78;4976403;28;20045;-68
2021/09/24 12:33:12;;;;;;;5.28;4.78;;;;;;;32.54;29.87;100592.50;4962608;28;20106;-68
2021/09/24 12:36:07;;;;;;;8.57;4.68;;;;;;;32.42;30.55;100583.69;4976416;28;20058;-67